Terminal Aerodrome Forecast
Issued by NWS

Home | Current Version | Previous Version | Text Only | Print | Product List | Glossary On
Versions: 1 2 3 4 5 6 7 8 9 10 11 12 13 14 15 16 17 18 19
178
FTUS45 KCYS 221358 AAA
TAFAIA
TAF AMD
KAIA 221358Z 2214/2312 15012G17KT P6SM BKN025 OVC050
     FM221600 12014KT 3SM -RA OVC025
     FM221800 12016KT 3SM -RA OVC015
     FM230100 13010KT 1SM -RA BR OVC008=

USA.gov is the U.S. government's official web portal to all federal, state and local government web resources and services.